Airfield :
LOGIN :

Register | Disclaimer

   EN    FR    IT 

 










Legend :    VFR   Marginal VFR   IFR   Intensive IFR   Very Intensive IFR
Visi :
Ceiling :
>= 8 km
>= 3000ft
5 to 8 km
1000 to 3000 ft
1500m to 5 km
500 to 1000 ft
800 to 1500m
200 to 500 ft
< 800m
< 200 ft
Symbols :   Thunderstorms  Fog  Heavy snow  Heavy precipitations  Wind > 20 kt
SIGMETs :     Misc.  Thunderstorms  Icing  Turbulence  Mountain Waves  Volcanic Ashes






- Airport Elevation : 580 ft


LFOA - Avord

CURRENT METAR :
  • 280330Z AUTO 00000KT 9999 -RA BKN016/// OVC024/// ///TCU 07/06 Q1012

EXPIRED METARs :
  • 280300Z AUTO 31002KT 8000 -RA SCT018 BKN024 BKN041 07/06 Q1013
  • 280230Z AUTO 14002KT 9999 -RADZ FEW033 BKN039 BKN046 08/05 Q1013
  • 272200Z AUTO 17002KT CAVOK 07/04 Q1014
  • 280200Z AUTO 10002KT 9999 SCT026/// BKN054/// BKN064/// ///TCU 07/05 Q1013
  • 272230Z AUTO 18003KT CAVOK 08/03 Q1014
  • 280130Z AUTO 21002KT 9999 -RA NSC 08/05 Q1013
  • 280100Z AUTO 16004KT 9999 -RA FEW045 SCT056 BKN074 08/05 Q1013

Expired Forecast.



MET'MAP, your aeronautical weather chart ! - Copyright ORBIFLY December 2007 - Disclaimer

ORBIFLY MET'MAP TEAM :

Programming & Development : Alexandra Zaïnal
Original concept : Baudouin d'Aumeries
Technical & hardware support : Manuel Goepfert
Assistance : Marc-Olivier Méhu




SOURCES & CREDITS :

   NOAA